sensor_id;sensor_type;location;lat;lon;timestamp;temperature;humidity
51878;SHT31;37911;51.526;11.536;2023-06-01T00:01:27;15.67;57.84
51878;SHT31;37911;51.526;11.536;2023-06-01T00:04:36;15.71;58.22
51878;SHT31;37911;51.526;11.536;2023-06-01T00:07:40;15.71;58.42
51878;SHT31;37911;51.526;11.536;2023-06-01T00:10:43;15.71;58.60
51878;SHT31;37911;51.526;11.536;2023-06-01T00:13:47;15.68;58.40
51878;SHT31;37911;51.526;11.536;2023-06-01T00:16:50;15.67;58.19
51878;SHT31;37911;51.526;11.536;2023-06-01T00:19:58;15.57;59.02
51878;SHT31;37911;51.526;11.536;2023-06-01T00:23:06;15.48;59.19
51878;SHT31;37911;51.526;11.536;2023-06-01T00:26:10;15.41;59.93
51878;SHT31;37911;51.526;11.536;2023-06-01T00:29:15;15.26;60.24
51878;SHT31;37911;51.526;11.536;2023-06-01T00:32:18;15.11;60.47
51878;SHT31;37911;51.526;11.536;2023-06-01T00:35:24;15.04;61.03
51878;SHT31;37911;51.526;11.536;2023-06-01T00:38:28;14.97;61.44
51878;SHT31;37911;51.526;11.536;2023-06-01T00:41:32;14.90;61.77
51878;SHT31;37911;51.526;11.536;2023-06-01T00:44:35;14.80;62.03
51878;SHT31;37911;51.526;11.536;2023-06-01T00:47:40;14.61;62.97
51878;SHT31;37911;51.526;11.536;2023-06-01T00:50:47;14.56;63.15
51878;SHT31;37911;51.526;11.536;2023-06-01T00:53:50;14.59;63.25
51878;SHT31;37911;51.526;11.536;2023-06-01T00:56:53;14.56;63.70
51878;SHT31;37911;51.526;11.536;2023-06-01T00:59:57;14.56;63.94
51878;SHT31;37911;51.526;11.536;2023-06-01T01:03:01;14.46;64.20
51878;SHT31;37911;51.526;11.536;2023-06-01T01:06:18;14.46;64.62
51878;SHT31;37911;51.526;11.536;2023-06-01T01:09:28;14.39;64.77
51878;SHT31;37911;51.526;11.536;2023-06-01T01:12:40;14.46;65.11
51878;SHT31;37911;51.526;11.536;2023-06-01T01:15:54;14.54;64.96
51878;SHT31;37911;51.526;11.536;2023-06-01T01:19:08;14.55;65.31
51878;SHT31;37911;51.526;11.536;2023-06-01T01:22:22;14.51;65.56
51878;SHT31;37911;51.526;11.536;2023-06-01T01:25:39;14.45;66.07
51878;SHT31;37911;51.526;11.536;2023-06-01T01:28:51;14.49;66.43
51878;SHT31;37911;51.526;11.536;2023-06-01T01:31:58;14.49;66.78
51878;SHT31;37911;51.526;11.536;2023-06-01T01:35:04;14.48;67.15
51878;SHT31;37911;51.526;11.536;2023-06-01T01:38:10;14.56;66.98
51878;SHT31;37911;51.526;11.536;2023-06-01T01:41:13;14.69;66.79
51878;SHT31;37911;51.526;11.536;2023-06-01T01:44:20;14.75;66.64
51878;SHT31;37911;51.526;11.536;2023-06-01T01:47:29;14.82;66.42
51878;SHT31;37911;51.526;11.536;2023-06-01T01:50:39;14.80;66.74
51878;SHT31;37911;51.526;11.536;2023-06-01T01:53:45;14.87;66.47
51878;SHT31;37911;51.526;11.536;2023-06-01T01:56:49;14.83;66.37
51878;SHT31;37911;51.526;11.536;2023-06-01T01:59:56;14.73;66.45
51878;SHT31;37911;51.526;11.536;2023-06-01T02:03:00;14.65;66.79
51878;SHT31;37911;51.526;11.536;2023-06-01T02:06:04;14.64;67.06
51878;SHT31;37911;51.526;11.536;2023-06-01T02:09:07;14.65;67.03
51878;SHT31;37911;51.526;11.536;2023-06-01T02:12:11;14.58;67.81
51878;SHT31;37911;51.526;11.536;2023-06-01T02:15:17;14.58;68.09
51878;SHT31;37911;51.526;11.536;2023-06-01T02:18:20;14.55;68.00
51878;SHT31;37911;51.526;11.536;2023-06-01T02:21:26;14.51;68.10
51878;SHT31;37911;51.526;11.536;2023-06-01T02:24:34;14.51;68.30
51878;SHT31;37911;51.526;11.536;2023-06-01T02:27:37;14.45;68.51
51878;SHT31;37911;51.526;11.536;2023-06-01T02:30:43;14.46;68.30
51878;SHT31;37911;51.526;11.536;2023-06-01T02:33:47;14.44;68.84
51878;SHT31;37911;51.526;11.536;2023-06-01T02:36:51;14.42;68.93
51878;SHT31;37911;51.526;11.536;2023-06-01T02:39:56;14.42;69.13
51878;SHT31;37911;51.526;11.536;2023-06-01T02:42:59;14.41;69.06
51878;SHT31;37911;51.526;11.536;2023-06-01T02:46:05;14.36;69.27
51878;SHT31;37911;51.526;11.536;2023-06-01T02:49:12;14.12;70.26
51878;SHT31;37911;51.526;11.536;2023-06-01T02:52:16;14.17;70.22
51878;SHT31;37911;51.526;11.536;2023-06-01T02:55:20;14.25;70.16
51878;SHT31;37911;51.526;11.536;2023-06-01T02:58:54;14.24;70.35
51878;SHT31;37911;51.526;11.536;2023-06-01T03:02:05;14.14;70.62
51878;SHT31;37911;51.526;11.536;2023-06-01T03:05:09;14.07;71.30
51878;SHT31;37911;51.526;11.536;2023-06-01T03:08:13;14.02;71.69
51878;SHT31;37911;51.526;11.536;2023-06-01T03:11:17;13.85;72.66
51878;SHT31;37911;51.526;11.536;2023-06-01T03:14:21;13.90;72.69
51878;SHT31;37911;51.526;11.536;2023-06-01T03:17:27;13.92;72.49
51878;SHT31;37911;51.526;11.536;2023-06-01T03:20:31;13.87;72.81
51878;SHT31;37911;51.526;11.536;2023-06-01T03:23:35;13.88;72.92
51878;SHT31;37911;51.526;11.536;2023-06-01T03:26:43;13.88;72.88
51878;SHT31;37911;51.526;11.536;2023-06-01T03:29:47;13.87;71.79
51878;SHT31;37911;51.526;11.536;2023-06-01T03:32:54;13.74;72.15
51878;SHT31;37911;51.526;11.536;2023-06-01T03:35:57;13.77;71.70
51878;SHT31;37911;51.526;11.536;2023-06-01T03:39:00;13.64;72.30
51878;SHT31;37911;51.526;11.536;2023-06-01T03:42:08;13.59;71.90
51878;SHT31;37911;51.526;11.536;2023-06-01T03:45:13;13.44;71.69
51878;SHT31;37911;51.526;11.536;2023-06-01T03:48:19;13.27;72.23
51878;SHT31;37911;51.526;11.536;2023-06-01T03:51:23;13.16;72.54
51878;SHT31;37911;51.526;11.536;2023-06-01T03:54:26;13.20;72.59
51878;SHT31;37911;51.526;11.536;2023-06-01T03:57:30;13.18;73.09
51878;SHT31;37911;51.526;11.536;2023-06-01T04:00:33;13.26;72.68
51878;SHT31;37911;51.526;11.536;2023-06-01T04:03:41;13.35;72.35
51878;SHT31;37911;51.526;11.536;2023-06-01T04:06:44;13.40;72.54
51878;SHT31;37911;51.526;11.536;2023-06-01T04:09:50;13.39;72.94
51878;SHT31;37911;51.526;11.536;2023-06-01T04:12:53;13.39;72.96
51878;SHT31;37911;51.526;11.536;2023-06-01T04:16:00;13.49;73.37
51878;SHT31;37911;51.526;11.536;2023-06-01T04:19:06;13.53;73.38
51878;SHT31;37911;51.526;11.536;2023-06-01T04:22:11;13.61;73.34
51878;SHT31;37911;51.526;11.536;2023-06-01T04:25:15;13.73;73.59
51878;SHT31;37911;51.526;11.536;2023-06-01T04:28:22;13.84;73.52
51878;SHT31;37911;51.526;11.536;2023-06-01T04:31:26;13.88;73.88
51878;SHT31;37911;51.526;11.536;2023-06-01T04:34:36;14.00;73.16
51878;SHT31;37911;51.526;11.536;2023-06-01T04:37:41;14.00;73.70
51878;SHT31;37911;51.526;11.536;2023-06-01T04:40:46;14.05;73.84
51878;SHT31;37911;51.526;11.536;2023-06-01T04:43:50;14.10;73.82
51878;SHT31;37911;51.526;11.536;2023-06-01T04:46:54;14.20;73.63
51878;SHT31;37911;51.526;11.536;2023-06-01T04:50:07;14.20;73.32
51878;SHT31;37911;51.526;11.536;2023-06-01T04:53:11;14.22;73.16
51878;SHT31;37911;51.526;11.536;2023-06-01T04:56:15;14.26;74.20
51878;SHT31;37911;51.526;11.536;2023-06-01T04:59:20;14.34;73.99
51878;SHT31;37911;51.526;11.536;2023-06-01T05:02:24;14.28;74.07
51878;SHT31;37911;51.526;11.536;2023-06-01T05:05:30;14.20;74.65
51878;SHT31;37911;51.526;11.536;2023-06-01T05:08:34;14.28;73.98
51878;SHT31;37911;51.526;11.536;2023-06-01T05:11:37;14.26;73.90
51878;SHT31;37911;51.526;11.536;2023-06-01T05:14:41;14.25;73.89
51878;SHT31;37911;51.526;11.536;2023-06-01T05:17:45;14.25;73.70
51878;SHT31;37911;51.526;11.536;2023-06-01T05:20:55;14.34;73.18
51878;SHT31;37911;51.526;11.536;2023-06-01T05:23:58;14.36;73.14
51878;SHT31;37911;51.526;11.536;2023-06-01T05:27:02;14.42;72.85
51878;SHT31;37911;51.526;11.536;2023-06-01T05:30:08;14.29;73.07
51878;SHT31;37911;51.526;11.536;2023-06-01T05:33:13;14.49;72.54
51878;SHT31;37911;51.526;11.536;2023-06-01T05:36:18;14.49;72.31
51878;SHT31;37911;51.526;11.536;2023-06-01T05:39:22;14.59;72.05
51878;SHT31;37911;51.526;11.536;2023-06-01T05:42:28;14.80;71.73
51878;SHT31;37911;51.526;11.536;2023-06-01T05:45:31;14.87;71.24
51878;SHT31;37911;51.526;11.536;2023-06-01T05:48:35;15.16;70.06
51878;SHT31;37911;51.526;11.536;2023-06-01T05:51:42;15.30;69.11
51878;SHT31;37911;51.526;11.536;2023-06-01T05:54:46;15.46;68.50
51878;SHT31;37911;51.526;11.536;2023-06-01T05:57:54;15.71;67.99
51878;SHT31;37911;51.526;11.536;2023-06-01T06:00:57;15.82;67.55
51878;SHT31;37911;51.526;11.536;2023-06-01T06:04:01;16.06;66.72
51878;SHT31;37911;51.526;11.536;2023-06-01T06:07:07;16.39;66.44
51878;SHT31;37911;51.526;11.536;2023-06-01T06:10:11;16.67;64.69
51878;SHT31;37911;51.526;11.536;2023-06-01T06:13:17;16.73;64.38
51878;SHT31;37911;51.526;11.536;2023-06-01T06:16:23;17.02;63.68
51878;SHT31;37911;51.526;11.536;2023-06-01T06:19:26;17.28;63.12
51878;SHT31;37911;51.526;11.536;2023-06-01T06:22:32;17.40;62.92
51878;SHT31;37911;51.526;11.536;2023-06-01T06:25:36;17.45;62.43
51878;SHT31;37911;51.526;11.536;2023-06-01T06:28:40;17.68;61.74
51878;SHT31;37911;51.526;11.536;2023-06-01T06:31:44;17.88;60.84
51878;SHT31;37911;51.526;11.536;2023-06-01T06:34:49;18.05;59.75
51878;SHT31;37911;51.526;11.536;2023-06-01T06:37:55;18.05;60.27
51878;SHT31;37911;51.526;11.536;2023-06-01T06:40:58;17.69;60.45
51878;SHT31;37911;51.526;11.536;2023-06-01T06:44:02;18.47;58.82
51878;SHT31;37911;51.526;11.536;2023-06-01T06:47:05;18.70;58.34
51878;SHT31;37911;51.526;11.536;2023-06-01T06:50:09;19.01;57.25
51878;SHT31;37911;51.526;11.536;2023-06-01T06:53:16;19.27;56.15
51878;SHT31;37911;51.526;11.536;2023-06-01T06:56:19;19.54;55.44
51878;SHT31;37911;51.526;11.536;2023-06-01T06:59:22;19.90;54.25
51878;SHT31;37911;51.526;11.536;2023-06-01T07:02:26;20.00;53.59
51878;SHT31;37911;51.526;11.536;2023-06-01T07:05:29;20.30;52.58
51878;SHT31;37911;51.526;11.536;2023-06-01T07:08:35;20.60;52.25
51878;SHT31;37911;51.526;11.536;2023-06-01T07:11:41;21.12;50.70
51878;SHT31;37911;51.526;11.536;2023-06-01T07:14:47;20.94;50.54
51878;SHT31;37911;51.526;11.536;2023-06-01T07:17:51;20.95;50.17
51878;SHT31;37911;51.526;11.536;2023-06-01T07:20:54;21.15;49.56
51878;SHT31;37911;51.526;11.536;2023-06-01T07:24:00;20.77;50.57
51878;SHT31;37911;51.526;11.536;2023-06-01T07:27:05;21.31;49.18
51878;SHT31;37911;51.526;11.536;2023-06-01T07:30:09;21.65;49.08
51878;SHT31;37911;51.526;11.536;2023-06-01T07:33:12;21.62;48.97
51878;SHT31;37911;51.526;11.536;2023-06-01T07:36:18;22.13;47.95
51878;SHT31;37911;51.526;11.536;2023-06-01T07:39:26;22.33;46.82
51878;SHT31;37911;51.526;11.536;2023-06-01T07:42:29;22.07;47.65
51878;SHT31;37911;51.526;11.536;2023-06-01T07:45:32;22.25;47.07
51878;SHT31;37911;51.526;11.536;2023-06-01T07:48:35;22.63;46.69
51878;SHT31;37911;51.526;11.536;2023-06-01T07:51:39;22.20;47.15
51878;SHT31;37911;51.526;11.536;2023-06-01T07:54:45;22.58;46.55
51878;SHT31;37911;51.526;11.536;2023-06-01T07:57:50;22.27;47.78
51878;SHT31;37911;51.526;11.536;2023-06-01T08:00:53;22.45;47.34
51878;SHT31;37911;51.526;11.536;2023-06-01T08:03:56;23.45;45.98
51878;SHT31;37911;51.526;11.536;2023-06-01T08:07:00;23.79;43.94
51878;SHT31;37911;51.526;11.536;2023-06-01T08:10:07;24.03;44.40
51878;SHT31;37911;51.526;11.536;2023-06-01T08:13:10;24.18;43.60
51878;SHT31;37911;51.526;11.536;2023-06-01T08:16:14;23.86;44.29
51878;SHT31;37911;51.526;11.536;2023-06-01T08:19:17;24.16;43.69
51878;SHT31;37911;51.526;11.536;2023-06-01T08:22:20;24.61;42.82
51878;SHT31;37911;51.526;11.536;2023-06-01T08:25:27;24.68;41.74
51878;SHT31;37911;51.526;11.536;2023-06-01T08:28:30;24.25;42.87
51878;SHT31;37911;51.526;11.536;2023-06-01T08:31:33;24.82;42.14
51878;SHT31;37911;51.526;11.536;2023-06-01T08:34:37;24.57;41.98
51878;SHT31;37911;51.526;11.536;2023-06-01T08:37:41;24.61;41.57
51878;SHT31;37911;51.526;11.536;2023-06-01T08:40:47;23.86;41.92
51878;SHT31;37911;51.526;11.536;2023-06-01T08:43:54;23.62;43.21
51878;SHT31;37911;51.526;11.536;2023-06-01T08:47:02;23.89;42.78
51878;SHT31;37911;51.526;11.536;2023-06-01T08:50:06;24.89;41.76
51878;SHT31;37911;51.526;11.536;2023-06-01T08:53:11;24.40;41.49
51878;SHT31;37911;51.526;11.536;2023-06-01T08:56:21;25.01;40.72
51878;SHT31;37911;51.526;11.536;2023-06-01T08:59:24;25.06;42.24
51878;SHT31;37911;51.526;11.536;2023-06-01T09:02:28;24.79;40.08
51878;SHT31;37911;51.526;11.536;2023-06-01T09:05:31;24.62;42.16
51878;SHT31;37911;51.526;11.536;2023-06-01T09:08:34;25.13;41.52
51878;SHT31;37911;51.526;11.536;2023-06-01T09:11:40;24.61;41.97
51878;SHT31;37911;51.526;11.536;2023-06-01T09:14:44;24.61;41.94
51878;SHT31;37911;51.526;11.536;2023-06-01T09:17:49;24.47;42.52
51878;SHT31;37911;51.526;11.536;2023-06-01T09:20:52;23.29;44.74
51878;SHT31;37911;51.526;11.536;2023-06-01T09:24:17;23.49;44.40
51878;SHT31;37911;51.526;11.536;2023-06-01T09:27:25;23.87;45.53
51878;SHT31;37911;51.526;11.536;2023-06-01T09:30:37;23.94;44.22
51878;SHT31;37911;51.526;11.536;2023-06-01T09:33:59;24.42;43.31
51878;SHT31;37911;51.526;11.536;2023-06-01T09:37:05;25.12;42.74
51878;SHT31;37911;51.526;11.536;2023-06-01T09:40:17;25.35;41.30
51878;SHT31;37911;51.526;11.536;2023-06-01T09:43:23;25.94;42.04
51878;SHT31;37911;51.526;11.536;2023-06-01T09:46:26;26.08;40.25
51878;SHT31;37911;51.526;11.536;2023-06-01T09:49:31;26.14;40.92
51878;SHT31;37911;51.526;11.536;2023-06-01T09:52:35;26.89;38.74
51878;SHT31;37911;51.526;11.536;2023-06-01T09:55:56;26.91;39.84
51878;SHT31;37911;51.526;11.536;2023-06-01T09:59:02;26.79;39.33
51878;SHT31;37911;51.526;11.536;2023-06-01T10:02:07;25.56;41.30
51878;SHT31;37911;51.526;11.536;2023-06-01T10:05:10;24.75;42.29
51878;SHT31;37911;51.526;11.536;2023-06-01T10:08:15;24.79;41.82
51878;SHT31;37911;51.526;11.536;2023-06-01T10:11:18;25.20;41.19
51878;SHT31;37911;51.526;11.536;2023-06-01T10:14:25;25.23;42.81
51878;SHT31;37911;51.526;11.536;2023-06-01T10:17:28;25.47;42.53
51878;SHT31;37911;51.526;11.536;2023-06-01T10:20:33;25.53;41.60
51878;SHT31;37911;51.526;11.536;2023-06-01T10:23:37;25.54;41.51
51878;SHT31;37911;51.526;11.536;2023-06-01T10:26:44;24.78;42.68
51878;SHT31;37911;51.526;11.536;2023-06-01T10:29:53;24.89;42.65
51878;SHT31;37911;51.526;11.536;2023-06-01T10:32:56;24.48;43.62
51878;SHT31;37911;51.526;11.536;2023-06-01T10:35:59;24.61;44.23
51878;SHT31;37911;51.526;11.536;2023-06-01T10:39:21;24.60;44.19
51878;SHT31;37911;51.526;11.536;2023-06-01T10:42:38;24.52;43.60
51878;SHT31;37911;51.526;11.536;2023-06-01T10:45:44;24.88;43.66
51878;SHT31;37911;51.526;11.536;2023-06-01T10:48:51;24.86;43.27
51878;SHT31;37911;51.526;11.536;2023-06-01T10:52:23;25.19;43.69
51878;SHT31;37911;51.526;11.536;2023-06-01T10:55:27;25.35;44.06
51878;SHT31;37911;51.526;11.536;2023-06-01T10:58:30;25.91;42.29
51878;SHT31;37911;51.526;11.536;2023-06-01T11:01:37;26.27;40.75
51878;SHT31;37911;51.526;11.536;2023-06-01T11:04:41;25.47;42.01
51878;SHT31;37911;51.526;11.536;2023-06-01T11:07:44;25.76;42.63
51878;SHT31;37911;51.526;11.536;2023-06-01T11:10:55;26.07;40.82
51878;SHT31;37911;51.526;11.536;2023-06-01T11:14:07;26.40;40.95
51878;SHT31;37911;51.526;11.536;2023-06-01T11:17:32;26.45;39.61
51878;SHT31;37911;51.526;11.536;2023-06-01T11:20:37;25.80;40.68
51878;SHT31;37911;51.526;11.536;2023-06-01T11:23:42;26.05;41.82
51878;SHT31;37911;51.526;11.536;2023-06-01T11:26:46;26.47;40.83
51878;SHT31;37911;51.526;11.536;2023-06-01T11:29:50;26.25;40.67
51878;SHT31;37911;51.526;11.536;2023-06-01T11:32:57;26.81;39.97
51878;SHT31;37911;51.526;11.536;2023-06-01T11:36:01;27.13;39.77
51878;SHT31;37911;51.526;11.536;2023-06-01T11:39:15;27.13;39.08
51878;SHT31;37911;51.526;11.536;2023-06-01T11:42:21;26.95;39.92
51878;SHT31;37911;51.526;11.536;2023-06-01T11:45:25;26.20;40.60
51878;SHT31;37911;51.526;11.536;2023-06-01T11:48:32;26.34;42.22
51878;SHT31;37911;51.526;11.536;2023-06-01T11:51:38;26.28;40.78
51878;SHT31;37911;51.526;11.536;2023-06-01T11:54:44;26.86;40.24
51878;SHT31;37911;51.526;11.536;2023-06-01T11:57:47;27.17;39.72
51878;SHT31;37911;51.526;11.536;2023-06-01T12:00:51;27.07;39.84
51878;SHT31;37911;51.526;11.536;2023-06-01T12:03:56;27.10;39.30
51878;SHT31;37911;51.526;11.536;2023-06-01T12:07:05;27.30;40.60
51878;SHT31;37911;51.526;11.536;2023-06-01T12:10:10;27.33;39.11
51878;SHT31;37911;51.526;11.536;2023-06-01T12:13:15;26.38;40.70
51878;SHT31;37911;51.526;11.536;2023-06-01T12:16:19;26.58;40.92
51878;SHT31;37911;51.526;11.536;2023-06-01T12:19:25;26.30;39.91
51878;SHT31;37911;51.526;11.536;2023-06-01T12:22:30;26.42;40.41
51878;SHT31;37911;51.526;11.536;2023-06-01T12:25:34;26.37;40.70
51878;SHT31;37911;51.526;11.536;2023-06-01T12:28:49;26.32;41.50
51878;SHT31;37911;51.526;11.536;2023-06-01T12:31:55;26.21;40.34
51878;SHT31;37911;51.526;11.536;2023-06-01T12:35:06;26.10;41.03
51878;SHT31;37911;51.526;11.536;2023-06-01T12:38:11;26.28;40.85
51878;SHT31;37911;51.526;11.536;2023-06-01T12:41:15;26.08;40.64
51878;SHT31;37911;51.526;11.536;2023-06-01T12:44:20;26.24;40.48
51878;SHT31;37911;51.526;11.536;2023-06-01T12:47:24;26.35;40.93
51878;SHT31;37911;51.526;11.536;2023-06-01T12:50:30;26.31;40.49
51878;SHT31;37911;51.526;11.536;2023-06-01T12:53:33;26.14;40.48
51878;SHT31;37911;51.526;11.536;2023-06-01T12:56:36;25.87;40.98
51878;SHT31;37911;51.526;11.536;2023-06-01T12:59:40;25.43;40.83
51878;SHT31;37911;51.526;11.536;2023-06-01T13:02:43;25.32;41.84
51878;SHT31;37911;51.526;11.536;2023-06-01T13:05:52;25.81;39.93
51878;SHT31;37911;51.526;11.536;2023-06-01T13:08:55;26.05;39.45
51878;SHT31;37911;51.526;11.536;2023-06-01T13:11:59;25.71;40.30
51878;SHT31;37911;51.526;11.536;2023-06-01T13:15:05;26.04;40.50
51878;SHT31;37911;51.526;11.536;2023-06-01T13:18:09;25.81;40.24
51878;SHT31;37911;51.526;11.536;2023-06-01T13:21:15;25.97;40.25
51878;SHT31;37911;51.526;11.536;2023-06-01T13:24:19;26.25;40.18
51878;SHT31;37911;51.526;11.536;2023-06-01T13:27:22;26.53;39.19
51878;SHT31;37911;51.526;11.536;2023-06-01T13:30:25;26.63;39.03
51878;SHT31;37911;51.526;11.536;2023-06-01T13:33:29;26.76;38.88
51878;SHT31;37911;51.526;11.536;2023-06-01T13:36:35;26.63;38.42
51878;SHT31;37911;51.526;11.536;2023-06-01T13:39:38;26.41;38.27
51878;SHT31;37911;51.526;11.536;2023-06-01T13:42:41;26.21;38.93
51878;SHT31;37911;51.526;11.536;2023-06-01T13:45:45;26.01;40.01
51878;SHT31;37911;51.526;11.536;2023-06-01T13:48:48;26.42;38.94
51878;SHT31;37911;51.526;11.536;2023-06-01T13:51:54;26.14;39.14
51878;SHT31;37911;51.526;11.536;2023-06-01T13:54:57;25.94;40.20
51878;SHT31;37911;51.526;11.536;2023-06-01T13:58:01;26.21;40.09
51878;SHT31;37911;51.526;11.536;2023-06-01T14:01:04;26.07;39.45
51878;SHT31;37911;51.526;11.536;2023-06-01T14:04:07;25.67;39.37
51878;SHT31;37911;51.526;11.536;2023-06-01T14:07:13;25.56;40.18
51878;SHT31;37911;51.526;11.536;2023-06-01T14:10:16;25.36;40.46
51878;SHT31;37911;51.526;11.536;2023-06-01T14:13:19;25.53;40.10
51878;SHT31;37911;51.526;11.536;2023-06-01T14:16:23;25.30;40.69
51878;SHT31;37911;51.526;11.536;2023-06-01T14:19:26;25.29;41.25
51878;SHT31;37911;51.526;11.536;2023-06-01T14:22:32;25.16;41.23
51878;SHT31;37911;51.526;11.536;2023-06-01T14:25:35;25.26;40.70
51878;SHT31;37911;51.526;11.536;2023-06-01T14:28:39;24.98;40.88
51878;SHT31;37911;51.526;11.536;2023-06-01T14:31:42;24.88;40.81
51878;SHT31;37911;51.526;11.536;2023-06-01T14:34:46;24.88;41.20
51878;SHT31;37911;51.526;11.536;2023-06-01T14:37:52;24.95;40.60
51878;SHT31;37911;51.526;11.536;2023-06-01T14:40:56;24.69;41.27
51878;SHT31;37911;51.526;11.536;2023-06-01T14:43:59;24.60;41.44
51878;SHT31;37911;51.526;11.536;2023-06-01T14:47:03;24.18;42.16
51878;SHT31;37911;51.526;11.536;2023-06-01T14:50:07;24.11;42.40
51878;SHT31;37911;51.526;11.536;2023-06-01T14:53:13;24.00;42.72
51878;SHT31;37911;51.526;11.536;2023-06-01T14:56:16;23.99;43.33
51878;SHT31;37911;51.526;11.536;2023-06-01T14:59:21;23.84;42.42
51878;SHT31;37911;51.526;11.536;2023-06-01T15:02:25;23.86;42.35
51878;SHT31;37911;51.526;11.536;2023-06-01T15:05:28;23.60;43.61
51878;SHT31;37911;51.526;11.536;2023-06-01T15:08:34;23.63;43.35
51878;SHT31;37911;51.526;11.536;2023-06-01T15:11:38;23.42;42.96
51878;SHT31;37911;51.526;11.536;2023-06-01T15:14:41;23.08;44.47
51878;SHT31;37911;51.526;11.536;2023-06-01T15:17:45;23.29;44.90
51878;SHT31;37911;51.526;11.536;2023-06-01T15:20:48;23.29;44.39
51878;SHT31;37911;51.526;11.536;2023-06-01T15:23:54;23.04;44.86
51878;SHT31;37911;51.526;11.536;2023-06-01T15:26:58;22.76;44.23
51878;SHT31;37911;51.526;11.536;2023-06-01T15:30:01;22.65;44.88
51878;SHT31;37911;51.526;11.536;2023-06-01T15:33:04;22.53;45.39
51878;SHT31;37911;51.526;11.536;2023-06-01T15:36:07;22.74;45.82
51878;SHT31;37911;51.526;11.536;2023-06-01T15:39:13;22.51;45.71
51878;SHT31;37911;51.526;11.536;2023-06-01T15:42:17;22.36;46.46
51878;SHT31;37911;51.526;11.536;2023-06-01T15:45:20;22.20;45.62
51878;SHT31;37911;51.526;11.536;2023-06-01T15:48:24;22.10;46.17
51878;SHT31;37911;51.526;11.536;2023-06-01T15:51:27;22.00;46.17
51878;SHT31;37911;51.526;11.536;2023-06-01T15:54:35;21.85;46.34
51878;SHT31;37911;51.526;11.536;2023-06-01T15:57:38;21.72;46.18
51878;SHT31;37911;51.526;11.536;2023-06-01T19:54:44;15.04;66.13
51878;SHT31;37911;51.526;11.536;2023-06-01T19:57:48;14.95;66.45
51878;SHT31;37911;51.526;11.536;2023-06-01T20:00:52;14.75;66.63
51878;SHT31;37911;51.526;11.536;2023-06-01T20:03:56;14.66;67.18
51878;SHT31;37911;51.526;11.536;2023-06-01T20:07:00;14.61;67.01
51878;SHT31;37911;51.526;11.536;2023-06-01T20:10:13;14.55;67.22
51878;SHT31;37911;51.526;11.536;2023-06-01T20:13:18;14.55;67.10
51878;SHT31;37911;51.526;11.536;2023-06-01T20:16:22;14.42;67.26
51878;SHT31;37911;51.526;11.536;2023-06-01T20:19:26;14.46;66.94
51878;SHT31;37911;51.526;11.536;2023-06-01T20:22:30;14.38;67.08
51878;SHT31;37911;51.526;11.536;2023-06-01T20:25:38;14.36;67.03
51878;SHT31;37911;51.526;11.536;2023-06-01T20:28:46;14.32;66.80
51878;SHT31;37911;51.526;11.536;2023-06-01T20:31:52;14.28;66.71
51878;SHT31;37911;51.526;11.536;2023-06-01T20:35:15;14.18;67.45
51878;SHT31;37911;51.526;11.536;2023-06-01T20:38:26;14.18;67.24
51878;SHT31;37911;51.526;11.536;2023-06-01T20:41:33;14.11;67.23
51878;SHT31;37911;51.526;11.536;2023-06-01T20:44:37;14.05;67.09
51878;SHT31;37911;51.526;11.536;2023-06-01T20:47:41;14.10;67.09
51878;SHT31;37911;51.526;11.536;2023-06-01T20:50:45;14.04;67.31
51878;SHT31;37911;51.526;11.536;2023-06-01T20:53:50;14.10;66.83
51878;SHT31;37911;51.526;11.536;2023-06-01T20:56:57;14.01;67.28
51878;SHT31;37911;51.526;11.536;2023-06-01T21:00:01;13.92;67.43
51878;SHT31;37911;51.526;11.536;2023-06-01T21:03:05;13.94;67.28
51878;SHT31;37911;51.526;11.536;2023-06-01T21:06:09;13.88;67.25
51878;SHT31;37911;51.526;11.536;2023-06-01T21:09:13;13.90;67.23
51878;SHT31;37911;51.526;11.536;2023-06-01T21:12:19;13.77;67.57
51878;SHT31;37911;51.526;11.536;2023-06-01T21:15:23;13.88;67.25
51878;SHT31;37911;51.526;11.536;2023-06-01T21:18:26;13.90;67.20
51878;SHT31;37911;51.526;11.536;2023-06-01T21:21:31;13.81;67.48
51878;SHT31;37911;51.526;11.536;2023-06-01T21:24:35;13.80;67.36
51878;SHT31;37911;51.526;11.536;2023-06-01T21:27:41;13.69;67.68
51878;SHT31;37911;51.526;11.536;2023-06-01T21:30:44;13.71;68.07
51878;SHT31;37911;51.526;11.536;2023-06-01T21:33:48;13.67;68.04
51878;SHT31;37911;51.526;11.536;2023-06-01T21:36:52;13.84;67.62
51878;SHT31;37911;51.526;11.536;2023-06-01T21:39:58;13.70;67.58
51878;SHT31;37911;51.526;11.536;2023-06-01T21:43:04;13.66;67.41
51878;SHT31;37911;51.526;11.536;2023-06-01T21:46:08;13.56;67.84
51878;SHT31;37911;51.526;11.536;2023-06-01T21:49:12;13.46;68.05
51878;SHT31;37911;51.526;11.536;2023-06-01T21:52:16;13.37;68.31
51878;SHT31;37911;51.526;11.536;2023-06-01T21:55:19;13.44;68.15
51878;SHT31;37911;51.526;11.536;2023-06-01T21:58:25;13.32;68.45
51878;SHT31;37911;51.526;11.536;2023-06-01T22:01:30;13.29;68.59
51878;SHT31;37911;51.526;11.536;2023-06-01T22:04:33;13.16;68.86
51878;SHT31;37911;51.526;11.536;2023-06-01T22:07:37;13.02;69.47
51878;SHT31;37911;51.526;11.536;2023-06-01T22:10:41;13.10;69.01
51878;SHT31;37911;51.526;11.536;2023-06-01T22:13:47;12.98;69.16
51878;SHT31;37911;51.526;11.536;2023-06-01T22:16:51;13.09;68.84
51878;SHT31;37911;51.526;11.536;2023-06-01T22:19:55;13.10;68.80
51878;SHT31;37911;51.526;11.536;2023-06-01T22:22:58;13.08;68.90
51878;SHT31;37911;51.526;11.536;2023-06-01T22:26:02;13.00;68.99
51878;SHT31;37911;51.526;11.536;2023-06-01T22:29:08;13.03;68.80
51878;SHT31;37911;51.526;11.536;2023-06-01T22:32:12;13.03;68.62
51878;SHT31;37911;51.526;11.536;2023-06-01T22:35:16;13.09;68.51
51878;SHT31;37911;51.526;11.536;2023-06-01T22:38:20;12.92;68.96
51878;SHT31;37911;51.526;11.536;2023-06-01T22:41:27;12.92;69.00
51878;SHT31;37911;51.526;11.536;2023-06-01T22:44:34;12.72;69.94
51878;SHT31;37911;51.526;11.536;2023-06-01T22:47:38;12.71;69.93
51878;SHT31;37911;51.526;11.536;2023-06-01T22:50:41;12.75;69.50
51878;SHT31;37911;51.526;11.536;2023-06-01T22:53:45;12.75;69.66
51878;SHT31;37911;51.526;11.536;2023-06-01T22:56:49;12.66;69.82
51878;SHT31;37911;51.526;11.536;2023-06-01T22:59:56;12.65;70.00
51878;SHT31;37911;51.526;11.536;2023-06-01T23:03:03;12.64;69.92
51878;SHT31;37911;51.526;11.536;2023-06-01T23:06:06;12.52;70.22